Time;durP1;ratioP1;P1;durP2;ratioP2;P2;SDS_P1;SDS_P2;PMS_P1;PMS_P2;Temp;Humidity;BMP_temperature;BMP_pressure;BME280_temperature;BME280_humidity;BME280_pressure;Samples;Min_cycle;Max_cycle;Signal;HPM_P1;HPM_P2
2024/02/05 00:01:31;;;;;;;0.43;0.37;;;;;;;;;;5053429;28;20197;-83
2024/02/05 00:04:04;;;;;;;0.67;0.40;;;;;;;;;;5050694;28;20255;-81
2024/02/05 00:06:33;;;;;;;0.33;0.30;;;;;;;;;;5061090;28;20943;-83
2024/02/05 00:09:00;;;;;;;0.70;0.30;;;;;;;;;;5050431;28;20194;-81
2024/02/05 00:11:27;;;;;;;0.50;0.30;;;;;;;;;;5052283;28;20204;-80
2024/02/05 00:13:57;;;;;;;1.13;0.30;;;;;;;;;;5059775;28;20226;-82
2024/02/05 00:16:24;;;;;;;0.50;0.40;;;;;;;;;;5068356;28;20193;-83
2024/02/05 00:18:52;;;;;;;0.40;0.30;;;;;;;;;;5055712;28;20194;-80
2024/02/05 00:21:23;;;;;;;0.40;0.40;;;;;;;;;;5064924;28;20220;-82
2024/02/05 00:23:52;;;;;;;0.30;0.30;;;;;;;;;;5070670;28;20197;-82
2024/02/05 00:26:21;;;;;;;0.27;0.27;;;;;;;;;;5070691;28;20270;-80
2024/02/05 00:28:49;;;;;;;0.53;0.30;;;;;;;;;;5060960;28;20342;-80
2024/02/05 00:31:19;;;;;;;0.30;0.30;;;;;;;;;;5054862;28;20876;-80
2024/02/05 00:33:46;;;;;;;0.30;0.30;;;;;;;;;;5068514;28;20196;-81
2024/02/05 00:36:21;;;;;;;0.30;0.27;;;;;;;;;;5071055;28;20200;-81
2024/02/05 00:38:48;;;;;;;0.70;0.30;;;;;;;;;;5051748;28;20241;-81
2024/02/05 00:41:20;;;;;;;1.20;0.40;;;;;;;;;;5057262;28;20204;-82
2024/02/05 00:43:48;;;;;;;0.63;0.30;;;;;;;;;;5051271;28;20686;-82
2024/02/05 00:46:28;;;;;;;0.83;0.30;;;;;;;;;;5055400;28;20189;-81
2024/02/05 00:48:56;;;;;;;0.37;0.37;;;;;;;;;;5060257;28;20188;-81
2024/02/05 00:51:28;;;;;;;1.00;0.40;;;;;;;;;;5070059;28;20279;-80
2024/02/05 00:53:59;;;;;;;1.70;0.40;;;;;;;;;;5068191;28;20205;-82
2024/02/05 00:56:25;;;;;;;1.53;0.50;;;;;;;;;;5056078;28;20287;-82
2024/02/05 00:58:52;;;;;;;1.00;0.30;;;;;;;;;;5059590;28;20194;-83
2024/02/05 01:01:19;;;;;;;0.50;0.37;;;;;;;;;;5056531;28;20748;-81
2024/02/05 01:03:48;;;;;;;0.30;0.30;;;;;;;;;;5050490;28;20247;-81
2024/02/05 01:06:14;;;;;;;0.20;0.20;;;;;;;;;;5056233;28;20200;-82
2024/02/05 01:08:41;;;;;;;0.40;0.40;;;;;;;;;;5055054;28;20194;-81
2024/02/05 01:11:08;;;;;;;2.20;0.50;;;;;;;;;;5054924;28;20212;-82
2024/02/05 01:13:39;;;;;;;2.80;0.53;;;;;;;;;;5056118;28;20694;-80
2024/02/05 01:16:06;;;;;;;1.67;0.50;;;;;;;;;;5039950;28;20194;-81
2024/02/05 01:18:32;;;;;;;0.70;0.40;;;;;;;;;;5051680;28;20716;-82
2024/02/05 01:21:01;;;;;;;0.70;0.40;;;;;;;;;;5057082;28;20212;-81
2024/02/05 01:23:31;;;;;;;0.57;0.33;;;;;;;;;;5058052;28;20198;-80
2024/02/05 01:25:57;;;;;;;1.03;0.40;;;;;;;;;;5066583;28;20200;-81
2024/02/05 01:28:26;;;;;;;0.50;0.40;;;;;;;;;;5050381;28;20301;-82
2024/02/05 01:30:53;;;;;;;0.73;0.53;;;;;;;;;;5065242;28;20186;-81
2024/02/05 01:33:23;;;;;;;0.40;0.40;;;;;;;;;;5047647;28;20647;-81
2024/02/05 01:35:51;;;;;;;1.27;0.50;;;;;;;;;;5057200;28;20278;-83
2024/02/05 01:38:24;;;;;;;0.43;0.30;;;;;;;;;;5054117;28;20203;-81
2024/02/05 01:40:55;;;;;;;0.50;0.40;;;;;;;;;;5047523;28;20306;-82
2024/02/05 01:43:25;;;;;;;1.67;0.50;;;;;;;;;;5065607;28;20198;-81
2024/02/05 01:45:53;;;;;;;1.70;0.40;;;;;;;;;;5049002;28;20199;-81
2024/02/05 01:48:24;;;;;;;0.30;0.30;;;;;;;;;;5053738;28;20217;-82
2024/02/05 01:50:52;;;;;;;1.77;0.50;;;;;;;;;;5052489;28;20777;-81
2024/02/05 01:53:19;;;;;;;0.70;0.30;;;;;;;;;;5053806;28;20877;-80
2024/02/05 01:55:50;;;;;;;0.73;0.50;;;;;;;;;;5056569;28;20317;-80
2024/02/05 01:58:22;;;;;;;1.77;0.40;;;;;;;;;;5056834;28;20288;-81
2024/02/05 02:00:55;;;;;;;0.40;0.30;;;;;;;;;;5056865;28;20228;-82
2024/02/05 02:03:22;;;;;;;1.80;0.50;;;;;;;;;;5063114;28;20280;-81
2024/02/05 02:05:55;;;;;;;1.33;0.53;;;;;;;;;;5060087;28;20218;-83
2024/02/05 02:08:27;;;;;;;0.63;0.50;;;;;;;;;;5059237;28;20297;-82
2024/02/05 02:10:59;;;;;;;0.93;0.53;;;;;;;;;;5060274;28;20240;-81
2024/02/05 02:13:26;;;;;;;0.93;0.50;;;;;;;;;;5059930;28;20217;-82
2024/02/05 02:15:54;;;;;;;0.40;0.40;;;;;;;;;;5059655;28;20696;-80
2024/02/05 02:18:23;;;;;;;0.60;0.40;;;;;;;;;;5065073;28;20194;-83
2024/02/05 02:20:51;;;;;;;1.80;0.40;;;;;;;;;;5045271;28;20241;-82
2024/02/05 02:23:29;;;;;;;1.13;0.50;;;;;;;;;;5053454;28;20233;-81
2024/02/05 02:25:58;;;;;;;0.67;0.50;;;;;;;;;;5057936;28;20193;-82
2024/02/05 02:28:28;;;;;;;0.57;0.53;;;;;;;;;;5053617;28;20228;-81
2024/02/05 02:30:55;;;;;;;1.00;0.50;;;;;;;;;;5053327;28;20204;-82
2024/02/05 02:33:43;;;;;;;0.80;0.50;;;;;;;;;;5061699;28;20676;-83
2024/02/05 02:36:17;;;;;;;0.53;0.30;;;;;;;;;;5044774;28;20210;-80
2024/02/05 02:39:13;;;;;;;1.07;0.47;;;;;;;;;;5061984;28;20200;-84
2024/02/05 02:41:43;;;;;;;0.43;0.43;;;;;;;;;;5052447;28;20288;-81
2024/02/05 02:44:12;;;;;;;0.47;0.47;;;;;;;;;;5057111;28;20290;-81
2024/02/05 02:46:44;;;;;;;1.50;0.50;;;;;;;;;;5052479;28;20197;-80
2024/02/05 02:49:11;;;;;;;1.07;0.40;;;;;;;;;;5053267;28;20217;-80
2024/02/05 02:51:38;;;;;;;2.77;0.60;;;;;;;;;;5055878;28;20201;-81
2024/02/05 02:54:05;;;;;;;1.13;0.40;;;;;;;;;;5053101;28;20205;-81
2024/02/05 02:56:35;;;;;;;0.80;0.50;;;;;;;;;;5052128;28;20237;-82
2024/02/05 02:59:06;;;;;;;0.40;0.40;;;;;;;;;;5052888;28;20181;-81
2024/02/05 03:01:33;;;;;;;1.50;0.50;;;;;;;;;;5052125;28;20243;-83
2024/02/05 03:04:01;;;;;;;0.70;0.40;;;;;;;;;;5052081;28;20189;-81
2024/02/05 03:06:31;;;;;;;0.60;0.50;;;;;;;;;;5052844;28;20231;-82
2024/02/05 03:08:58;;;;;;;0.53;0.47;;;;;;;;;;5053827;28;20244;-83
2024/02/05 03:11:28;;;;;;;0.37;0.30;;;;;;;;;;5053381;28;20243;-82
2024/02/05 03:13:59;;;;;;;1.03;0.30;;;;;;;;;;5051443;28;20221;-81
2024/02/05 03:16:29;;;;;;;0.30;0.30;;;;;;;;;;5041493;28;20194;-81
2024/02/05 03:18:55;;;;;;;0.60;0.40;;;;;;;;;;5048190;28;20252;-80
2024/02/05 03:21:28;;;;;;;0.50;0.30;;;;;;;;;;5044049;28;20276;-81
2024/02/05 03:24:00;;;;;;;0.93;0.30;;;;;;;;;;5034839;28;20208;-82
2024/02/05 03:26:26;;;;;;;0.60;0.40;;;;;;;;;;5049037;28;20273;-80
2024/02/05 03:28:56;;;;;;;0.30;0.30;;;;;;;;;;5045231;28;20214;-80
2024/02/05 03:31:26;;;;;;;0.30;0.30;;;;;;;;;;5048289;28;20233;-81
2024/02/05 03:33:56;;;;;;;0.60;0.30;;;;;;;;;;5043617;28;20209;-85
2024/02/05 03:36:26;;;;;;;1.13;0.40;;;;;;;;;;5053618;28;20211;-82
2024/02/05 03:38:55;;;;;;;0.60;0.40;;;;;;;;;;5053347;28;20239;-81
2024/02/05 03:41:22;;;;;;;0.97;0.30;;;;;;;;;;5053030;28;20189;-81
2024/02/05 03:43:51;;;;;;;0.90;0.40;;;;;;;;;;5054508;28;20197;-81
2024/02/05 03:46:18;;;;;;;0.80;0.43;;;;;;;;;;5052916;28;20206;-81
2024/02/05 03:48:50;;;;;;;0.80;0.43;;;;;;;;;;5031022;28;20217;-81
2024/02/05 03:51:17;;;;;;;0.30;0.30;;;;;;;;;;5054894;28;20277;-83
2024/02/05 03:53:45;;;;;;;0.80;0.40;;;;;;;;;;5051846;28;20276;-81
2024/02/05 03:56:24;;;;;;;0.50;0.30;;;;;;;;;;5044612;28;20599;-81
2024/02/05 03:58:53;;;;;;;0.30;0.30;;;;;;;;;;5033941;28;20220;-82
2024/02/05 04:01:20;;;;;;;0.30;0.30;;;;;;;;;;5045532;28;20248;-82
2024/02/05 04:03:50;;;;;;;0.70;0.40;;;;;;;;;;5051147;28;20198;-81
2024/02/05 04:06:19;;;;;;;0.33;0.33;;;;;;;;;;5033333;28;20716;-80
2024/02/05 04:08:46;;;;;;;2.53;0.50;;;;;;;;;;5051052;28;20763;-83
2024/02/05 04:11:13;;;;;;;0.77;0.40;;;;;;;;;;5057026;28;20201;-81
2024/02/05 04:13:39;;;;;;;0.57;0.40;;;;;;;;;;5050155;28;20197;-80
2024/02/05 04:16:12;;;;;;;0.40;0.30;;;;;;;;;;5033279;28;20252;-81
2024/02/05 04:18:40;;;;;;;0.63;0.40;;;;;;;;;;5051937;28;20248;-83
2024/02/05 04:21:10;;;;;;;0.53;0.30;;;;;;;;;;5026851;28;20205;-83
2024/02/05 04:23:39;;;;;;;0.40;0.40;;;;;;;;;;5043671;28;20221;-82
2024/02/05 04:26:18;;;;;;;0.60;0.40;;;;;;;;;;5033611;28;20202;-82
2024/02/05 04:28:47;;;;;;;0.80;0.50;;;;;;;;;;5050004;28;20249;-84
2024/02/05 04:31:17;;;;;;;0.87;0.40;;;;;;;;;;5031677;28;20630;-83
2024/02/05 04:33:49;;;;;;;0.40;0.40;;;;;;;;;;5038608;28;20206;-85
2024/02/05 04:36:21;;;;;;;0.90;0.40;;;;;;;;;;5048059;28;20200;-84
2024/02/05 04:38:48;;;;;;;0.50;0.40;;;;;;;;;;5051370;28;20240;-84
2024/02/05 04:41:24;;;;;;;1.00;0.40;;;;;;;;;;5051336;28;20197;-84
2024/02/05 04:43:53;;;;;;;1.63;0.47;;;;;;;;;;5017335;28;20217;-83
2024/02/05 04:46:22;;;;;;;0.60;0.50;;;;;;;;;;5051159;28;20194;-83
2024/02/05 04:48:53;;;;;;;1.33;0.67;;;;;;;;;;5054812;28;20292;-84
2024/02/05 04:51:23;;;;;;;0.57;0.53;;;;;;;;;;5063436;28;20226;-82
2024/02/05 04:53:51;;;;;;;0.60;0.40;;;;;;;;;;5050795;28;20196;-83
2024/02/05 04:56:22;;;;;;;0.57;0.40;;;;;;;;;;5041079;28;20237;-83
2024/02/05 04:58:52;;;;;;;0.63;0.50;;;;;;;;;;5051631;28;20194;-83
2024/02/05 05:01:19;;;;;;;0.93;0.40;;;;;;;;;;5053408;28;20244;-85
2024/02/05 05:03:45;;;;;;;0.40;0.40;;;;;;;;;;5038390;28;20217;-83
2024/02/05 05:06:12;;;;;;;0.73;0.40;;;;;;;;;;5053970;28;20194;-84
2024/02/05 05:08:39;;;;;;;0.77;0.40;;;;;;;;;;5054766;28;20283;-84
2024/02/05 05:11:06;;;;;;;0.83;0.50;;;;;;;;;;5043186;28;20205;-82
2024/02/05 05:13:42;;;;;;;0.47;0.40;;;;;;;;;;5056213;28;20283;-82
2024/02/05 05:16:09;;;;;;;1.23;0.40;;;;;;;;;;5056940;28;20188;-85
2024/02/05 05:18:39;;;;;;;0.33;0.33;;;;;;;;;;5058788;28;20197;-84
2024/02/05 05:21:06;;;;;;;0.47;0.30;;;;;;;;;;5037934;28;20225;-82
2024/02/05 05:23:34;;;;;;;0.50;0.50;;;;;;;;;;5046273;28;20185;-84
2024/02/05 05:26:05;;;;;;;0.60;0.43;;;;;;;;;;5039622;28;20268;-83
2024/02/05 05:28:32;;;;;;;0.63;0.30;;;;;;;;;;5036414;28;20671;-84
2024/02/05 05:31:06;;;;;;;1.13;0.60;;;;;;;;;;5058139;28;20200;-86
2024/02/05 05:33:36;;;;;;;0.40;0.40;;;;;;;;;;5040387;28;20193;-84
2024/02/05 05:36:04;;;;;;;0.53;0.40;;;;;;;;;;5037333;28;20193;-84
2024/02/05 05:38:34;;;;;;;0.70;0.40;;;;;;;;;;5054722;28;20324;-80
2024/02/05 05:41:03;;;;;;;0.70;0.50;;;;;;;;;;5054564;28;20202;-81
2024/02/05 05:43:32;;;;;;;0.43;0.43;;;;;;;;;;5035989;28;20634;-81
2024/02/05 05:45:58;;;;;;;1.00;0.50;;;;;;;;;;5042101;28;20259;-80
2024/02/05 05:48:25;;;;;;;0.40;0.40;;;;;;;;;;5036271;28;20279;-83
2024/02/05 05:50:52;;;;;;;0.30;0.30;;;;;;;;;;5054388;28;20189;-82
2024/02/05 05:53:20;;;;;;;0.47;0.40;;;;;;;;;;5053235;28;20365;-82
2024/02/05 05:55:48;;;;;;;0.40;0.40;;;;;;;;;;5053464;28;20237;-78
2024/02/05 05:58:15;;;;;;;0.20;0.20;;;;;;;;;;5051397;28;20247;-82
2024/02/05 06:00:42;;;;;;;0.47;0.43;;;;;;;;;;5018488;28;20228;-79
2024/02/05 06:03:11;;;;;;;0.30;0.30;;;;;;;;;;5058533;28;20197;-80
2024/02/05 06:05:42;;;;;;;0.40;0.40;;;;;;;;;;5035155;28;20332;-79
2024/02/05 06:08:10;;;;;;;0.30;0.30;;;;;;;;;;5053067;28;20210;-82
2024/02/05 06:10:38;;;;;;;0.40;0.40;;;;;;;;;;5047912;28;20281;-81
2024/02/05 06:13:07;;;;;;;0.40;0.40;;;;;;;;;;5035515;28;20233;-79
2024/02/05 06:15:34;;;;;;;0.47;0.37;;;;;;;;;;5051906;28;20193;-80
2024/02/05 06:18:00;;;;;;;0.40;0.40;;;;;;;;;;5034069;28;20201;-81
2024/02/05 06:20:27;;;;;;;0.60;0.50;;;;;;;;;;5038975;28;20209;-82
2024/02/05 06:22:55;;;;;;;0.50;0.50;;;;;;;;;;5032273;28;20210;-80
2024/02/05 06:25:26;;;;;;;0.37;0.37;;;;;;;;;;5052199;28;20289;-81
2024/02/05 06:27:55;;;;;;;0.50;0.40;;;;;;;;;;5051038;28;20220;-82
2024/02/05 06:30:29;;;;;;;0.30;0.30;;;;;;;;;;5046587;28;20196;-81
2024/02/05 06:32:58;;;;;;;1.13;0.40;;;;;;;;;;5052092;28;20200;-81
2024/02/05 06:35:27;;;;;;;0.60;0.30;;;;;;;;;;5035079;28;20208;-79
2024/02/05 06:37:56;;;;;;;0.40;0.40;;;;;;;;;;5047347;28;20202;-78
2024/02/05 06:40:24;;;;;;;0.33;0.33;;;;;;;;;;5054626;28;20278;-83
2024/02/05 06:42:53;;;;;;;0.30;0.30;;;;;;;;;;5052277;28;20198;-81
2024/02/05 06:45:21;;;;;;;0.40;0.40;;;;;;;;;;5047736;28;20236;-79
2024/02/05 06:47:48;;;;;;;0.50;0.30;;;;;;;;;;5049503;28;20220;-82
2024/02/05 06:50:18;;;;;;;0.30;0.30;;;;;;;;;;5051976;28;20189;-81
2024/02/05 06:52:45;;;;;;;0.30;0.30;;;;;;;;;;5032936;28;20195;-82
2024/02/05 06:55:12;;;;;;;0.70;0.50;;;;;;;;;;5049157;28;20193;-81
2024/02/05 06:57:41;;;;;;;0.67;0.37;;;;;;;;;;5047745;28;20240;-79
2024/02/05 07:00:12;;;;;;;0.40;0.40;;;;;;;;;;5034614;28;20227;-85
2024/02/05 07:02:39;;;;;;;0.80;0.40;;;;;;;;;;5034444;28;20247;-82
2024/02/05 07:05:14;;;;;;;0.50;0.37;;;;;;;;;;5035247;28;20308;-80
2024/02/05 07:07:41;;;;;;;0.40;0.40;;;;;;;;;;5034067;28;20742;-81
2024/02/05 07:10:11;;;;;;;0.50;0.40;;;;;;;;;;5048088;28;20277;-81
2024/02/05 07:12:40;;;;;;;0.27;0.20;;;;;;;;;;5033741;28;20285;-79
2024/02/05 07:15:09;;;;;;;0.30;0.30;;;;;;;;;;5051682;28;20190;-80
2024/02/05 07:17:38;;;;;;;0.90;0.50;;;;;;;;;;5047863;28;20223;-81
2024/02/05 07:20:07;;;;;;;0.93;0.50;;;;;;;;;;5049967;28;20190;-79
2024/02/05 07:22:40;;;;;;;0.40;0.40;;;;;;;;;;5046470;28;20630;-80
2024/02/05 07:25:09;;;;;;;0.30;0.30;;;;;;;;;;5047067;28;20195;-81
2024/02/05 07:27:37;;;;;;;0.83;0.47;;;;;;;;;;5047216;28;20273;-80
2024/02/05 07:30:05;;;;;;;0.60;0.50;;;;;;;;;;5055657;28;20217;-79
2024/02/05 07:32:35;;;;;;;1.27;0.40;;;;;;;;;;5037578;28;20198;-82
2024/02/05 07:35:05;;;;;;;1.23;0.40;;;;;;;;;;5053114;28;20207;-81
2024/02/05 07:37:36;;;;;;;0.73;0.33;;;;;;;;;;5034010;28;20264;-82
2024/02/05 07:40:03;;;;;;;0.60;0.30;;;;;;;;;;5050203;28;20195;-81
2024/02/05 07:42:30;;;;;;;0.30;0.30;;;;;;;;;;5052055;28;20276;-80
2024/02/05 07:44:57;;;;;;;0.90;0.40;;;;;;;;;;5050057;28;20267;-81
2024/02/05 07:47:25;;;;;;;0.60;0.30;;;;;;;;;;5049313;28;20193;-83
2024/02/05 07:49:51;;;;;;;0.47;0.33;;;;;;;;;;5052661;28;20236;-78
2024/02/05 07:52:20;;;;;;;0.60;0.30;;;;;;;;;;5048502;28;20212;-80
2024/02/05 07:54:47;;;;;;;0.30;0.30;;;;;;;;;;5033200;28;20206;-81
2024/02/05 07:57:18;;;;;;;0.60;0.47;;;;;;;;;;5050684;28;20233;-81
2024/02/05 07:59:47;;;;;;;0.30;0.30;;;;;;;;;;5052038;28;20225;-79
2024/02/05 08:02:18;;;;;;;0.63;0.30;;;;;;;;;;5050586;28;20196;-79
2024/02/05 08:04:56;;;;;;;0.37;0.20;;;;;;;;;;5049072;28;20204;-80
2024/02/05 08:07:24;;;;;;;0.30;0.30;;;;;;;;;;5048494;28;20193;-79
2024/02/05 08:09:54;;;;;;;0.10;0.10;;;;;;;;;;5038259;28;20221;-80
2024/02/05 08:12:31;;;;;;;0.20;0.20;;;;;;;;;;5049853;28;20673;-80
2024/02/05 08:15:00;;;;;;;0.10;0.10;;;;;;;;;;5052769;28;20277;-79
2024/02/05 08:17:27;;;;;;;0.50;0.20;;;;;;;;;;5050856;28;20189;-79
2024/02/05 08:19:58;;;;;;;1.13;0.10;;;;;;;;;;5050486;28;20190;-81
2024/02/05 08:22:31;;;;;;;0.87;0.20;;;;;;;;;;5043970;28;20196;-79
2024/02/05 08:24:58;;;;;;;0.50;0.30;;;;;;;;;;5058251;28;20210;-80
2024/02/05 08:27:27;;;;;;;1.80;0.30;;;;;;;;;;5052234;28;20663;-79
2024/02/05 08:29:54;;;;;;;0.40;0.30;;;;;;;;;;5051550;28;20278;-80
2024/02/05 08:32:23;;;;;;;0.73;0.30;;;;;;;;;;5050876;28;20195;-80
2024/02/05 08:34:55;;;;;;;0.30;0.20;;;;;;;;;;5051141;28;20274;-79
2024/02/05 08:37:27;;;;;;;0.30;0.30;;;;;;;;;;5033959;28;20198;-78
2024/02/05 08:39:58;;;;;;;0.63;0.10;;;;;;;;;;5030723;28;20203;-80
2024/02/05 08:42:26;;;;;;;0.40;0.20;;;;;;;;;;5033222;28;20211;-81
2024/02/05 08:45:01;;;;;;;0.60;0.27;;;;;;;;;;5048659;28;20198;-81
2024/02/05 08:47:38;;;;;;;1.27;0.30;;;;;;;;;;5050724;28;20197;-80
2024/02/05 08:50:07;;;;;;;0.30;0.20;;;;;;;;;;5049480;28;20214;-80
2024/02/05 08:52:34;;;;;;;0.30;0.20;;;;;;;;;;5051701;28;20259;-81
2024/02/05 08:55:10;;;;;;;0.40;0.20;;;;;;;;;;5049868;28;20727;-81
2024/02/05 08:57:43;;;;;;;1.13;0.30;;;;;;;;;;5036817;28;20240;-79
2024/02/05 09:00:13;;;;;;;0.70;0.30;;;;;;;;;;5047369;28;20218;-80
2024/02/05 09:02:45;;;;;;;0.30;0.17;;;;;;;;;;5045972;28;20256;-80
2024/02/05 09:05:19;;;;;;;0.93;0.30;;;;;;;;;;5050068;28;20199;-80
2024/02/05 09:08:05;;;;;;;0.63;0.10;;;;;;;;;;5050496;28;20666;-80
2024/02/05 09:10:32;;;;;;;0.30;0.30;;;;;;;;;;5050044;28;20288;-80
2024/02/05 09:13:00;;;;;;;1.67;0.30;;;;;;;;;;5024862;28;20198;-82
2024/02/05 09:15:30;;;;;;;0.73;0.40;;;;;;;;;;5049941;28;20194;-81
2024/02/05 09:17:58;;;;;;;0.77;0.20;;;;;;;;;;5050189;28;20217;-79
2024/02/05 09:20:27;;;;;;;0.10;0.10;;;;;;;;;;5050223;28;20194;-80
2024/02/05 09:22:57;;;;;;;1.00;0.20;;;;;;;;;;5050706;28;20189;-80
2024/02/05 09:25:29;;;;;;;0.20;0.20;;;;;;;;;;5051095;28;20232;-81
2024/02/05 09:27:56;;;;;;;0.73;0.20;;;;;;;;;;5050536;28;20199;-81
2024/02/05 09:30:26;;;;;;;0.30;0.20;;;;;;;;;;5025686;28;20222;-82
2024/02/05 09:32:54;;;;;;;1.03;0.20;;;;;;;;;;5041370;28;20209;-80
2024/02/05 09:35:21;;;;;;;0.50;0.20;;;;;;;;;;5033462;28;20244;-81
2024/02/05 09:37:53;;;;;;;0.97;0.30;;;;;;;;;;5056059;28;20194;-79
2024/02/05 09:40:20;;;;;;;0.37;0.30;;;;;;;;;;5048699;28;20745;-79
2024/02/05 09:42:52;;;;;;;0.90;0.50;;;;;;;;;;5035738;28;20186;-81
2024/02/05 09:45:21;;;;;;;0.40;0.20;;;;;;;;;;5035640;28;20245;-80
2024/02/05 09:47:51;;;;;;;0.40;0.30;;;;;;;;;;5036657;28;20250;-80
2024/02/05 09:50:23;;;;;;;0.90;0.37;;;;;;;;;;5052358;28;20249;-81
2024/02/05 09:52:50;;;;;;;0.60;0.50;;;;;;;;;;5042217;28;20289;-81
2024/02/05 09:55:26;;;;;;;1.53;0.47;;;;;;;;;;5035131;28;20195;-80
2024/02/05 09:57:56;;;;;;;1.80;0.40;;;;;;;;;;5040483;28;20199;-82
2024/02/05 10:00:23;;;;;;;1.53;0.30;;;;;;;;;;5034094;28;20211;-82
2024/02/05 10:02:50;;;;;;;2.00;0.30;;;;;;;;;;5035159;28;20200;-80
2024/02/05 10:05:19;;;;;;;0.77;0.53;;;;;;;;;;5036580;28;20196;-79
2024/02/05 10:07:49;;;;;;;1.33;0.37;;;;;;;;;;5034071;28;20243;-78
2024/02/05 10:10:20;;;;;;;1.03;0.40;;;;;;;;;;5035246;28;20231;-78
2024/02/05 10:12:50;;;;;;;1.37;0.40;;;;;;;;;;5034439;28;20199;-81
2024/02/05 10:15:41;;;;;;;1.47;0.30;;;;;;;;;;5033512;28;20668;-80
2024/02/05 10:18:14;;;;;;;0.77;0.37;;;;;;;;;;5034907;28;20191;-81
2024/02/05 10:20:46;;;;;;;0.57;0.40;;;;;;;;;;5024203;28;20192;-79
2024/02/05 10:23:15;;;;;;;1.87;0.27;;;;;;;;;;5033964;28;20195;-81
2024/02/05 10:25:46;;;;;;;0.67;0.30;;;;;;;;;;5021221;28;20722;-81
2024/02/05 10:28:20;;;;;;;0.90;0.30;;;;;;;;;;5037251;28;20202;-81
2024/02/05 10:30:48;;;;;;;3.20;0.73;;;;;;;;;;5015913;28;20225;-79
2024/02/05 10:33:18;;;;;;;0.67;0.40;;;;;;;;;;5038164;28;20197;-80
2024/02/05 10:35:45;;;;;;;1.13;0.40;;;;;;;;;;5033698;28;20227;-80
2024/02/05 10:38:19;;;;;;;1.03;0.30;;;;;;;;;;5033754;28;20221;-80
2024/02/05 10:40:46;;;;;;;1.03;0.40;;;;;;;;;;5033556;28;20189;-81
2024/02/05 10:43:16;;;;;;;1.23;0.40;;;;;;;;;;5036184;28;20195;-80
2024/02/05 10:45:44;;;;;;;1.17;0.50;;;;;;;;;;5033379;28;20222;-83
2024/02/05 10:48:17;;;;;;;1.93;0.47;;;;;;;;;;5032792;28;20191;-81
2024/02/05 10:50:50;;;;;;;1.57;0.40;;;;;;;;;;5037961;28;20239;-82
2024/02/05 10:53:21;;;;;;;1.70;0.60;;;;;;;;;;5033611;28;20195;-80
2024/02/05 10:55:52;;;;;;;1.47;0.43;;;;;;;;;;5025521;28;20336;-79
2024/02/05 10:58:19;;;;;;;1.30;0.50;;;;;;;;;;5014077;28;20223;-81
2024/02/05 11:00:47;;;;;;;0.93;0.40;;;;;;;;;;5034189;28;20735;-80
2024/02/05 11:03:17;;;;;;;1.27;0.60;;;;;;;;;;5030259;28;20691;-79
2024/02/05 11:05:47;;;;;;;0.83;0.40;;;;;;;;;;5026097;28;20204;-80
2024/02/05 11:08:23;;;;;;;1.53;0.50;;;;;;;;;;5023380;28;20259;-80
2024/02/05 11:10:55;;;;;;;2.10;0.50;;;;;;;;;;5026993;28;20218;-78
2024/02/05 11:13:28;;;;;;;1.90;0.40;;;;;;;;;;5014528;28;20267;-79
2024/02/05 11:15:59;;;;;;;1.43;0.40;;;;;;;;;;5019943;28;20192;-80
2024/02/05 11:18:33;;;;;;;1.47;0.60;;;;;;;;;;5012334;28;20672;-80
2024/02/05 11:21:04;;;;;;;1.43;0.50;;;;;;;;;;5046331;28;20201;-79
2024/02/05 11:23:32;;;;;;;0.97;0.40;;;;;;;;;;5040111;28;20283;-78
2024/02/05 11:26:05;;;;;;;1.37;0.57;;;;;;;;;;5012277;28;20654;-82
2024/02/05 11:28:32;;;;;;;1.07;0.50;;;;;;;;;;5026358;28;20197;-80
2024/02/05 11:31:07;;;;;;;1.30;0.60;;;;;;;;;;5027995;28;20220;-79
2024/02/05 11:33:38;;;;;;;1.83;0.50;;;;;;;;;;5047438;28;20194;-80
2024/02/05 11:36:08;;;;;;;0.90;0.60;;;;;;;;;;5030995;28;20324;-81
2024/02/05 11:38:37;;;;;;;2.00;0.70;;;;;;;;;;5034697;28;20281;-80
2024/02/05 11:41:26;;;;;;;1.60;0.50;;;;;;;;;;5039005;28;20190;-80
2024/02/05 11:44:03;;;;;;;1.43;0.57;;;;;;;;;;5017835;28;20253;-79
2024/02/05 11:46:36;;;;;;;1.63;0.60;;;;;;;;;;5032881;28;20193;-81
2024/02/05 11:49:03;;;;;;;1.03;0.60;;;;;;;;;;5035597;28;20193;-81
2024/02/05 11:51:30;;;;;;;2.30;0.80;;;;;;;;;;5035544;28;20239;-80
2024/02/05 11:53:58;;;;;;;3.27;0.53;;;;;;;;;;5031704;28;20189;-78
2024/02/05 11:56:27;;;;;;;1.23;0.50;;;;;;;;;;5036643;28;20310;-79
2024/02/05 11:58:53;;;;;;;1.40;0.50;;;;;;;;;;5068170;28;20197;-79
2024/02/05 12:01:22;;;;;;;1.73;0.60;;;;;;;;;;5058242;28;20218;-79
2024/02/05 12:03:51;;;;;;;2.10;0.70;;;;;;;;;;5059992;28;20250;-80
2024/02/05 12:06:23;;;;;;;2.17;0.80;;;;;;;;;;5061168;28;20239;-86
2024/02/05 12:08:50;;;;;;;1.93;0.60;;;;;;;;;;5058472;28;20197;-80
2024/02/05 12:11:22;;;;;;;2.87;0.80;;;;;;;;;;5034649;28;20222;-79
2024/02/05 12:13:55;;;;;;;2.10;0.63;;;;;;;;;;5053394;28;20193;-81
2024/02/05 12:16:27;;;;;;;1.90;0.70;;;;;;;;;;5046929;28;20235;-80
2024/02/05 12:18:57;;;;;;;3.67;0.80;;;;;;;;;;5051537;28;20219;-79
2024/02/05 12:21:41;;;;;;;1.27;0.60;;;;;;;;;;5063319;28;20199;-79
2024/02/05 12:24:09;;;;;;;1.90;0.83;;;;;;;;;;5053466;28;20202;-80
2024/02/05 12:26:40;;;;;;;2.70;0.60;;;;;;;;;;5071615;28;20205;-81
2024/02/05 12:29:07;;;;;;;2.30;0.87;;;;;;;;;;5045866;28;20205;-80
2024/02/05 12:31:36;;;;;;;2.63;0.83;;;;;;;;;;5053256;28;20196;-82
2024/02/05 12:34:03;;;;;;;2.10;0.80;;;;;;;;;;5050087;28;20224;-80
2024/02/05 12:36:36;;;;;;;3.30;1.00;;;;;;;;;;5051426;28;20208;-81
2024/02/05 12:39:09;;;;;;;2.43;0.80;;;;;;;;;;5062903;28;20206;-80
2024/02/05 12:41:38;;;;;;;2.03;0.83;;;;;;;;;;5057037;28;20207;-80
2024/02/05 12:44:08;;;;;;;3.80;0.80;;;;;;;;;;5052544;28;20187;-80
2024/02/05 12:46:47;;;;;;;2.40;0.83;;;;;;;;;;5054000;28;20667;-79
2024/02/05 12:49:18;;;;;;;3.93;0.80;;;;;;;;;;5056593;28;20252;-80
2024/02/05 12:51:46;;;;;;;2.87;0.73;;;;;;;;;;5058538;28;20193;-80
2024/02/05 12:54:14;;;;;;;2.57;1.00;;;;;;;;;;5040445;28;20206;-79
2024/02/05 12:56:44;;;;;;;1.70;0.70;;;;;;;;;;5041354;28;20234;-80
2024/02/05 12:59:15;;;;;;;2.60;0.80;;;;;;;;;;5013349;28;20292;-81
2024/02/05 13:01:56;;;;;;;3.23;0.80;;;;;;;;;;5010291;28;20697;-82
2024/02/05 13:04:27;;;;;;;2.87;0.77;;;;;;;;;;5003358;28;20201;-81
2024/02/05 13:07:07;;;;;;;4.17;0.80;;;;;;;;;;5031779;28;20198;-79
2024/02/05 13:09:40;;;;;;;2.93;1.00;;;;;;;;;;5031808;28;20271;-80
2024/02/05 13:12:08;;;;;;;1.63;0.80;;;;;;;;;;5030388;28;20699;-81
2024/02/05 13:14:35;;;;;;;2.17;1.00;;;;;;;;;;5031660;28;20733;-81
2024/02/05 13:17:04;;;;;;;2.97;0.70;;;;;;;;;;5037193;28;20197;-79
2024/02/05 13:19:32;;;;;;;1.50;0.70;;;;;;;;;;5030459;28;20206;-80
2024/02/05 13:22:00;;;;;;;3.70;0.80;;;;;;;;;;5032338;28;20197;-80
2024/02/05 13:24:33;;;;;;;1.60;0.70;;;;;;;;;;5033815;28;20200;-79
2024/02/05 13:27:12;;;;;;;3.20;1.13;;;;;;;;;;5032667;28;20281;-80
2024/02/05 13:30:07;;;;;;;4.77;1.00;;;;;;;;;;5023828;28;20715;-81
2024/02/05 13:32:34;;;;;;;3.33;0.93;;;;;;;;;;5046259;28;20302;-79
2024/02/05 13:35:03;;;;;;;3.80;1.10;;;;;;;;;;5034934;28;20194;-81
2024/02/05 13:37:29;;;;;;;1.83;0.80;;;;;;;;;;5037701;28;20197;-79
2024/02/05 13:40:00;;;;;;;1.20;0.77;;;;;;;;;;5037766;28;20755;-80
2024/02/05 13:42:29;;;;;;;2.03;0.80;;;;;;;;;;5041474;28;20737;-79
2024/02/05 13:45:12;;;;;;;2.63;1.13;;;;;;;;;;5034670;28;20284;-80
2024/02/05 13:47:48;;;;;;;2.00;0.90;;;;;;;;;;5039905;28;20201;-79
2024/02/05 13:50:17;;;;;;;2.10;0.80;;;;;;;;;;5019390;28;20223;-81
2024/02/05 13:52:44;;;;;;;3.23;0.80;;;;;;;;;;5040446;28;20218;-83
2024/02/05 13:55:15;;;;;;;4.90;0.87;;;;;;;;;;5029104;28;20245;-83
2024/02/05 13:57:42;;;;;;;2.07;0.70;;;;;;;;;;5034435;28;20242;-80
2024/02/05 14:00:11;;;;;;;4.57;1.27;;;;;;;;;;5015521;28;20272;-80
2024/02/05 14:02:40;;;;;;;1.73;0.80;;;;;;;;;;5032132;28;20201;-79
2024/02/05 14:05:10;;;;;;;2.43;0.80;;;;;;;;;;5030629;28;20205;-80
2024/02/05 14:07:38;;;;;;;4.57;1.10;;;;;;;;;;5020315;28;20199;-81
2024/02/05 14:10:09;;;;;;;2.30;0.80;;;;;;;;;;5020258;28;20242;-77
2024/02/05 14:12:36;;;;;;;3.13;1.00;;;;;;;;;;5032070;28;20194;-78
2024/02/05 14:15:05;;;;;;;2.53;0.80;;;;;;;;;;5032146;28;20226;-77
2024/02/05 14:17:40;;;;;;;2.30;0.80;;;;;;;;;;5032075;28;20670;-77
2024/02/05 14:20:07;;;;;;;2.40;0.83;;;;;;;;;;5031998;28;20233;-77
2024/02/05 14:22:34;;;;;;;3.53;1.00;;;;;;;;;;5032067;28;20485;-77
2024/02/05 14:25:10;;;;;;;2.00;0.80;;;;;;;;;;5031630;28;20270;-78
2024/02/05 14:27:38;;;;;;;2.33;0.87;;;;;;;;;;5031871;28;20222;-77
2024/02/05 14:30:11;;;;;;;2.90;0.80;;;;;;;;;;5031975;28;20231;-77
2024/02/05 14:32:39;;;;;;;3.83;1.20;;;;;;;;;;5031379;28;20301;-77
2024/02/05 14:35:08;;;;;;;1.90;0.80;;;;;;;;;;5031479;28;20205;-77
2024/02/05 14:37:35;;;;;;;3.43;1.10;;;;;;;;;;5031611;28;20222;-75
2024/02/05 14:40:07;;;;;;;3.57;1.10;;;;;;;;;;5032742;28;20286;-76
2024/02/05 14:42:40;;;;;;;4.83;0.90;;;;;;;;;;5034467;28;20195;-77
2024/02/05 14:45:12;;;;;;;2.83;0.87;;;;;;;;;;5031359;28;20206;-76
2024/02/05 14:47:45;;;;;;;2.13;0.80;;;;;;;;;;5031255;28;20293;-78
2024/02/05 14:50:14;;;;;;;3.27;1.00;;;;;;;;;;5031244;28;20241;-77
2024/02/05 14:52:43;;;;;;;3.03;1.00;;;;;;;;;;5031500;28;20198;-77
2024/02/05 14:55:11;;;;;;;3.43;1.40;;;;;;;;;;5031282;28;20595;-78
2024/02/05 14:57:40;;;;;;;3.10;1.00;;;;;;;;;;5045163;28;20240;-77
2024/02/05 15:00:10;;;;;;;2.73;0.67;;;;;;;;;;5050372;28;20244;-75